Time;durP1;ratioP1;P1;durP2;ratioP2;P2;SDS_P1;SDS_P2;PMS_P1;PMS_P2;Temp;Humidity;BMP_temperature;BMP_pressure;BME280_temperature;BME280_humidity;BME280_pressure;Samples;Min_cycle;Max_cycle;Signal;HPM_P1;HPM_P2
2023/06/19 00:02:04;;;;;;;;;;;23.60;79.20;;;;;;8427954;28;19946;-72
2023/06/19 00:06:06;;;;;;;;;;;23.60;79.20;;;;;;8425803;28;19934;-73
2023/06/19 00:10:08;;;;;;;;;;;23.60;79.30;;;;;;8422997;28;19986;-72
2023/06/19 00:14:10;;;;;;;;;;;23.50;79.40;;;;;;8402041;28;19963;-72
2023/06/19 00:18:12;;;;;;;;;;;23.50;79.60;;;;;;8397615;28;20272;-72
2023/06/19 00:22:14;;;;;;;;;;;23.50;80.50;;;;;;8403779;28;19928;-73
2023/06/19 00:26:15;;;;;;;;;;;23.40;80.90;;;;;;8424993;28;19931;-72
2023/06/19 00:30:17;;;;;;;;;;;23.30;80.70;;;;;;8397755;28;19924;-73
2023/06/19 00:34:19;;;;;;;;;;;23.20;81.90;;;;;;8406710;28;19928;-72
2023/06/19 00:38:21;;;;;;;;;;;23.20;81.70;;;;;;8411515;28;19927;-72
2023/06/19 00:42:22;;;;;;;;;;;23.10;82.80;;;;;;8423418;28;19932;-73
2023/06/19 00:46:24;;;;;;;;;;;23.00;82.60;;;;;;8416659;28;19939;-73
2023/06/19 00:50:28;;;;;;;;;;;22.90;83.80;;;;;;8416060;28;19931;-72
2023/06/19 00:54:30;;;;;;;;;;;22.80;85.80;;;;;;8422084;28;19928;-73
2023/06/19 00:58:32;;;;;;;;;;;22.80;85.80;;;;;;8434464;28;19932;-74
2023/06/19 01:02:34;;;;;;;;;;;22.70;84.00;;;;;;8433161;28;19942;-73
2023/06/19 01:06:42;;;;;;;;;;;22.70;84.30;;;;;;8399469;28;20323;-72
2023/06/19 01:10:46;;;;;;;;;;;22.60;84.60;;;;;;8403613;28;19939;-73
2023/06/19 01:14:51;;;;;;;;;;;22.50;87.30;;;;;;8416767;28;19924;-73
2023/06/19 01:18:53;;;;;;;;;;;22.50;88.90;;;;;;8419018;28;19932;-72
2023/06/19 01:22:56;;;;;;;;;;;22.30;87.80;;;;;;8423791;28;20027;-72
2023/06/19 01:26:58;;;;;;;;;;;22.20;92.60;;;;;;8399980;28;20450;-73
2023/06/19 01:31:00;;;;;;;;;;;22.10;90.30;;;;;;8401481;28;19931;-73
2023/06/19 01:35:02;;;;;;;;;;;22.00;89.80;;;;;;8409103;28;19928;-72
2023/06/19 01:39:04;;;;;;;;;;;22.00;89.50;;;;;;8416440;28;20481;-73
2023/06/19 01:43:07;;;;;;;;;;;21.90;90.00;;;;;;8413532;28;20236;-74
2023/06/19 01:47:09;;;;;;;;;;;21.90;88.80;;;;;;8422551;28;19924;-72
2023/06/19 01:51:11;;;;;;;;;;;21.90;89.10;;;;;;8420916;28;19929;-73
2023/06/19 01:55:13;;;;;;;;;;;21.90;90.00;;;;;;8419096;28;19927;-74
2023/06/19 01:59:15;;;;;;;;;;;21.80;91.20;;;;;;8419353;28;19981;-73
2023/06/19 02:03:17;;;;;;;;;;;21.80;90.70;;;;;;8417121;28;20261;-75
2023/06/19 02:07:18;;;;;;;;;;;21.70;93.00;;;;;;8411171;28;19968;-73
2023/06/19 02:11:20;;;;;;;;;;;21.70;93.70;;;;;;8419277;28;20257;-73
2023/06/19 02:20:26;;;;;;;;;;;21.70;91.70;;;;;;8404892;28;22316;-73
2023/06/19 02:24:28;;;;;;;;;;;21.60;91.60;;;;;;8424328;28;20018;-73
2023/06/19 02:28:29;;;;;;;;;;;21.60;91.50;;;;;;8413942;28;20403;-74
2023/06/19 02:32:31;;;;;;;;;;;21.60;91.60;;;;;;8410602;28;19928;-74
2023/06/19 02:36:35;;;;;;;;;;;21.60;91.80;;;;;;8435151;28;20296;-74
2023/06/19 02:40:37;;;;;;;;;;;21.50;91.80;;;;;;8415641;28;19924;-74
2023/06/19 02:44:38;;;;;;;;;;;21.50;91.80;;;;;;8415420;28;19924;-73
2023/06/19 02:48:40;;;;;;;;;;;21.60;91.90;;;;;;8415723;28;19923;-73
2023/06/19 02:52:42;;;;;;;;;;;21.50;92.20;;;;;;8401737;28;20227;-74
2023/06/19 02:56:43;;;;;;;;;;;21.40;92.40;;;;;;8422175;28;19928;-73
2023/06/19 03:00:45;;;;;;;;;;;21.40;92.60;;;;;;8415350;28;19931;-73
2023/06/19 03:04:47;;;;;;;;;;;21.40;92.80;;;;;;8420020;28;20292;-73
2023/06/19 03:08:49;;;;;;;;;;;21.40;92.80;;;;;;8406196;28;19978;-73
2023/06/19 03:12:50;;;;;;;;;;;21.30;94.20;;;;;;8415879;28;19925;-73
2023/06/19 03:16:52;;;;;;;;;;;21.30;93.20;;;;;;8392165;28;19924;-73
2023/06/19 03:20:54;;;;;;;;;;;21.30;94.30;;;;;;8434182;28;20371;-73
2023/06/19 03:24:55;;;;;;;;;;;21.20;96.30;;;;;;8420901;28;20333;-73
2023/06/19 03:28:57;;;;;;;;;;;21.20;93.90;;;;;;8415733;28;19931;-72
2023/06/19 03:32:59;;;;;;;;;;;21.20;94.00;;;;;;8416053;28;19931;-74
2023/06/19 03:37:00;;;;;;;;;;;21.20;96.60;;;;;;8409681;28;19928;-72
2023/06/19 03:41:02;;;;;;;;;;;21.10;94.90;;;;;;8413795;28;19927;-74
2023/06/19 03:45:04;;;;;;;;;;;21.00;99.90;;;;;;8421710;28;19933;-74
2023/06/19 03:49:06;;;;;;;;;;;20.90;99.90;;;;;;8427532;28;19969;-74
2023/06/19 03:53:08;;;;;;;;;;;20.90;99.90;;;;;;8436696;28;19969;-74
2023/06/19 03:57:10;;;;;;;;;;;20.80;99.90;;;;;;8426019;28;19932;-73
2023/06/19 04:01:12;;;;;;;;;;;20.80;99.90;;;;;;8425947;28;19935;-74
2023/06/19 04:05:15;;;;;;;;;;;20.70;99.90;;;;;;8418672;28;19928;-74
2023/06/19 04:09:17;;;;;;;;;;;20.60;99.90;;;;;;8444948;28;19928;-75
2023/06/19 04:13:18;;;;;;;;;;;20.50;99.90;;;;;;8436615;28;19924;-74
2023/06/19 04:17:20;;;;;;;;;;;20.50;99.90;;;;;;8426521;28;20367;-73
2023/06/19 04:21:22;;;;;;;;;;;20.60;99.90;;;;;;8413172;28;19932;-74
2023/06/19 04:25:23;;;;;;;;;;;20.50;99.90;;;;;;8436857;27;19977;-74
2023/06/19 04:29:25;;;;;;;;;;;20.50;99.90;;;;;;8426279;28;20424;-74
2023/06/19 04:33:27;;;;;;;;;;;20.50;99.90;;;;;;8426172;28;19928;-74
2023/06/19 04:37:29;;;;;;;;;;;20.50;99.90;;;;;;8385565;28;19932;-73
2023/06/19 04:41:31;;;;;;;;;;;20.40;99.90;;;;;;8403370;28;20330;-76
2023/06/19 04:45:32;;;;;;;;;;;20.30;99.90;;;;;;8412414;28;19924;-74
2023/06/19 04:49:34;;;;;;;;;;;20.30;99.90;;;;;;8417346;28;19928;-74
2023/06/19 04:53:36;;;;;;;;;;;20.30;99.90;;;;;;8424258;28;19977;-74
2023/06/19 04:57:38;;;;;;;;;;;20.40;99.90;;;;;;8426419;28;19924;-75
2023/06/19 05:01:40;;;;;;;;;;;20.40;99.90;;;;;;8423294;28;19947;-74
2023/06/19 05:05:42;;;;;;;;;;;20.40;99.90;;;;;;8418377;28;20068;-70
2023/06/19 05:09:43;;;;;;;;;;;20.40;99.90;;;;;;8408711;28;20430;-70
2023/06/19 05:13:45;;;;;;;;;;;20.40;99.90;;;;;;8410098;28;19924;-69
2023/06/19 05:17:47;;;;;;;;;;;20.40;99.90;;;;;;8410906;28;19924;-70
2023/06/19 05:21:48;;;;;;;;;;;20.30;99.90;;;;;;8430253;28;19924;-70
2023/06/19 05:25:50;;;;;;;;;;;20.30;99.90;;;;;;8432939;27;20426;-70
2023/06/19 05:29:52;;;;;;;;;;;20.30;99.90;;;;;;8452340;27;19934;-70
2023/06/19 05:33:54;;;;;;;;;;;20.30;99.90;;;;;;8399317;28;19928;-70
2023/06/19 05:37:55;;;;;;;;;;;20.20;99.90;;;;;;8403369;28;19928;-70
2023/06/19 05:41:57;;;;;;;;;;;20.20;99.90;;;;;;8427508;28;19974;-70
2023/06/19 05:45:59;;;;;;;;;;;20.20;99.90;;;;;;8434570;28;20324;-70
2023/06/19 05:50:01;;;;;;;;;;;20.20;99.90;;;;;;8397781;28;19932;-69
2023/06/19 05:54:03;;;;;;;;;;;20.20;99.90;;;;;;8411999;27;20304;-70
2023/06/19 05:58:06;;;;;;;;;;;20.20;99.90;;;;;;8384401;28;19932;-70
2023/06/19 06:02:07;;;;;;;;;;;20.20;99.90;;;;;;8391534;28;19927;-70
2023/06/19 06:06:09;;;;;;;;;;;20.10;99.90;;;;;;8405010;28;19954;-70
2023/06/19 06:10:11;;;;;;;;;;;20.00;99.90;;;;;;8424276;28;19924;-70
2023/06/19 06:14:12;;;;;;;;;;;20.00;99.90;;;;;;8419721;28;19978;-70
2023/06/19 06:18:14;;;;;;;;;;;20.00;99.90;;;;;;8414244;28;19925;-70
2023/06/19 06:22:16;;;;;;;;;;;19.90;99.90;;;;;;8439646;28;19924;-70
2023/06/19 06:26:18;;;;;;;;;;;19.90;99.90;;;;;;8443828;28;19934;-70
2023/06/19 06:30:20;;;;;;;;;;;20.00;99.90;;;;;;8436114;28;19924;-70
2023/06/19 06:34:22;;;;;;;;;;;20.20;99.90;;;;;;8420498;28;20266;-70
2023/06/19 06:38:24;;;;;;;;;;;20.30;99.90;;;;;;8426229;28;20029;-70
2023/06/19 06:42:26;;;;;;;;;;;20.30;99.90;;;;;;8431336;28;20295;-70
2023/06/19 06:46:27;;;;;;;;;;;20.30;99.90;;;;;;8422656;28;19925;-70
2023/06/19 06:50:31;;;;;;;;;;;20.30;99.90;;;;;;8422532;28;19924;-69
2023/06/19 06:54:33;;;;;;;;;;;20.40;99.90;;;;;;8403196;28;20261;-70
2023/06/19 06:58:36;;;;;;;;;;;20.30;99.90;;;;;;8422017;28;19924;-70
2023/06/19 07:02:38;;;;;;;;;;;20.30;99.90;;;;;;8424831;28;19924;-70
2023/06/19 07:06:40;;;;;;;;;;;20.30;99.90;;;;;;8428108;28;19939;-70
2023/06/19 07:10:41;;;;;;;;;;;20.30;99.90;;;;;;8431035;28;19969;-69
2023/06/19 07:14:43;;;;;;;;;;;20.30;99.90;;;;;;8442351;28;19931;-70
2023/06/19 07:18:45;;;;;;;;;;;20.20;99.90;;;;;;8438849;28;20371;-70
2023/06/19 07:22:47;;;;;;;;;;;20.10;99.90;;;;;;8418394;28;19924;-71
2023/06/19 07:26:48;;;;;;;;;;;20.00;99.90;;;;;;8435174;28;20519;-70
2023/06/19 07:30:52;;;;;;;;;;;20.00;99.90;;;;;;8417883;28;20379;-70
2023/06/19 07:34:53;;;;;;;;;;;19.90;99.90;;;;;;8415467;28;19924;-69
2023/06/19 07:38:55;;;;;;;;;;;19.90;99.90;;;;;;8416456;28;19928;-70
2023/06/19 07:42:57;;;;;;;;;;;19.90;99.90;;;;;;8406139;28;19932;-69
2023/06/19 07:46:58;;;;;;;;;;;19.90;99.90;;;;;;8426136;28;19971;-70
2023/06/19 07:51:00;;;;;;;;;;;19.90;99.90;;;;;;8426425;28;19925;-70
2023/06/19 07:55:02;;;;;;;;;;;20.00;99.90;;;;;;8432641;28;19925;-69
2023/06/19 07:59:03;;;;;;;;;;;20.00;99.90;;;;;;8433755;28;19935;-71
2023/06/19 08:03:06;;;;;;;;;;;20.00;99.90;;;;;;8419684;27;20379;-69
2023/06/19 08:07:08;;;;;;;;;;;20.10;99.90;;;;;;8426323;28;19930;-70
2023/06/19 08:11:10;;;;;;;;;;;20.20;99.90;;;;;;8433030;28;20318;-71
2023/06/19 08:15:13;;;;;;;;;;;20.20;99.90;;;;;;8408774;28;19928;-70
2023/06/19 08:19:15;;;;;;;;;;;20.30;99.90;;;;;;8421961;28;19928;-70
2023/06/19 08:23:16;;;;;;;;;;;20.40;99.90;;;;;;8418480;28;19931;-70
2023/06/19 08:27:18;;;;;;;;;;;20.40;99.90;;;;;;8418423;28;19955;-70
2023/06/19 08:31:21;;;;;;;;;;;20.40;99.90;;;;;;8417281;28;19924;-70
2023/06/19 08:35:23;;;;;;;;;;;20.40;99.90;;;;;;8426345;28;19931;-70
2023/06/19 08:39:24;;;;;;;;;;;20.40;99.90;;;;;;8402089;28;19931;-70
2023/06/19 08:43:28;;;;;;;;;;;20.40;99.90;;;;;;8430751;28;19924;-70
2023/06/19 08:47:31;;;;;;;;;;;20.50;99.90;;;;;;8440347;27;20411;-70
2023/06/19 08:51:33;;;;;;;;;;;20.50;99.90;;;;;;8420870;28;19931;-70
2023/06/19 08:55:35;;;;;;;;;;;20.50;99.90;;;;;;8431462;28;19928;-70
2023/06/19 08:59:37;;;;;;;;;;;20.50;99.90;;;;;;8426191;28;19929;-70
2023/06/19 09:03:38;;;;;;;;;;;20.50;99.90;;;;;;8406804;28;21721;-70
2023/06/19 09:07:40;;;;;;;;;;;20.60;99.90;;;;;;8440147;28;19923;-70
2023/06/19 09:11:45;;;;;;;;;;;20.60;99.90;;;;;;8429657;28;19986;-70
2023/06/19 09:15:47;;;;;;;;;;;20.60;99.90;;;;;;8439715;28;19931;-70
2023/06/19 09:19:53;;;;;;;;;;;20.60;99.90;;;;;;8430425;28;19924;-70
2023/06/19 09:23:54;;;;;;;;;;;20.60;99.90;;;;;;8392937;28;19932;-71
2023/06/19 09:27:56;;;;;;;;;;;20.60;99.90;;;;;;8422699;28;20347;-70
2023/06/19 09:31:58;;;;;;;;;;;20.70;99.90;;;;;;8417715;28;20046;-71
2023/06/19 09:36:01;;;;;;;;;;;20.70;99.90;;;;;;8431250;28;19968;-71
2023/06/19 09:40:12;;;;;;;;;;;20.80;99.90;;;;;;8433763;28;19924;-70
2023/06/19 09:44:16;;;;;;;;;;;20.90;99.90;;;;;;8425181;28;19924;-70
2023/06/19 09:48:19;;;;;;;;;;;20.90;99.90;;;;;;8431918;28;19931;-70
2023/06/19 09:52:24;;;;;;;;;;;21.00;99.90;;;;;;8428042;28;20022;-71
2023/06/19 09:56:26;;;;;;;;;;;21.00;99.90;;;;;;8429547;28;19972;-70
2023/06/19 10:00:31;;;;;;;;;;;21.00;99.90;;;;;;8423152;28;19924;-70
2023/06/19 10:04:52;;;;;;;;;;;21.20;99.90;;;;;;8429595;28;19928;-70
2023/06/19 10:08:53;;;;;;;;;;;21.30;99.90;;;;;;8425875;28;19924;-71
2023/06/19 10:12:57;;;;;;;;;;;21.30;99.90;;;;;;8434038;27;19928;-70
2023/06/19 10:17:07;;;;;;;;;;;21.40;99.90;;;;;;8440059;28;19928;-70
2023/06/19 10:21:15;;;;;;;;;;;21.60;99.90;;;;;;8433351;28;19924;-70
2023/06/19 10:25:21;;;;;;;;;;;21.60;99.90;;;;;;8440744;28;20288;-71
2023/06/19 10:29:23;;;;;;;;;;;21.70;99.90;;;;;;8427798;28;20350;-70
2023/06/19 10:33:29;;;;;;;;;;;21.70;99.90;;;;;;8425546;28;19946;-71
2023/06/19 10:37:33;;;;;;;;;;;21.80;99.90;;;;;;8443068;28;20395;-71
2023/06/19 10:41:35;;;;;;;;;;;22.00;99.90;;;;;;8419754;28;19925;-70
2023/06/19 10:45:37;;;;;;;;;;;22.00;99.90;;;;;;8433598;28;19930;-69
2023/06/19 10:49:39;;;;;;;;;;;22.00;99.90;;;;;;8437942;27;20405;-70
2023/06/19 10:53:40;;;;;;;;;;;22.10;99.90;;;;;;8421952;28;19923;-70
2023/06/19 10:57:45;;;;;;;;;;;22.20;99.90;;;;;;8414937;28;20272;-70
2023/06/19 11:01:47;;;;;;;;;;;22.20;99.90;;;;;;8419803;28;19924;-70
2023/06/19 11:05:50;;;;;;;;;;;22.30;99.90;;;;;;8404628;28;19935;-70
2023/06/19 11:09:51;;;;;;;;;;;22.50;99.90;;;;;;8416715;28;20364;-70
2023/06/19 11:13:54;;;;;;;;;;;22.70;99.90;;;;;;8419162;28;19995;-70
2023/06/19 11:17:57;;;;;;;;;;;22.70;99.90;;;;;;8439041;28;20268;-70
2023/06/19 11:22:00;;;;;;;;;;;22.70;99.90;;;;;;8419345;28;19924;-71
2023/06/19 11:26:05;;;;;;;;;;;22.60;99.90;;;;;;8433254;28;19963;-70
2023/06/19 11:30:07;;;;;;;;;;;22.60;99.90;;;;;;8399646;28;19979;-71
2023/06/19 11:34:09;;;;;;;;;;;22.70;99.90;;;;;;8397413;28;19925;-70
2023/06/19 11:38:15;;;;;;;;;;;22.80;99.90;;;;;;8403700;28;19931;-70
2023/06/19 11:42:17;;;;;;;;;;;22.90;99.90;;;;;;8417540;28;20366;-71
2023/06/19 11:46:21;;;;;;;;;;;23.00;99.90;;;;;;8440366;28;19993;-70
2023/06/19 11:50:27;;;;;;;;;;;23.00;99.90;;;;;;8425216;28;19959;-70
2023/06/19 11:54:29;;;;;;;;;;;23.20;99.90;;;;;;8396790;28;20206;-71
2023/06/19 11:58:30;;;;;;;;;;;23.30;99.90;;;;;;8420736;28;20354;-70
2023/06/19 12:02:32;;;;;;;;;;;23.30;99.90;;;;;;8399359;28;19925;-70
2023/06/19 12:06:35;;;;;;;;;;;23.40;99.90;;;;;;8419529;28;20386;-70
2023/06/19 12:10:37;;;;;;;;;;;23.40;99.90;;;;;;8414847;28;19932;-71
2023/06/19 12:14:39;;;;;;;;;;;23.40;99.90;;;;;;8425962;28;19924;-71
2023/06/19 12:18:41;;;;;;;;;;;23.60;99.90;;;;;;8438119;28;20371;-70
2023/06/19 12:22:43;;;;;;;;;;;23.70;99.90;;;;;;8423728;28;19928;-70
2023/06/19 12:26:44;;;;;;;;;;;23.70;99.90;;;;;;8428036;28;19924;-71
2023/06/19 12:30:48;;;;;;;;;;;23.70;99.90;;;;;;8444817;28;19939;-70
2023/06/19 12:34:53;;;;;;;;;;;23.70;99.90;;;;;;8419107;28;19927;-70
2023/06/19 12:38:55;;;;;;;;;;;23.70;99.90;;;;;;8425806;28;19935;-70
2023/06/19 12:42:57;;;;;;;;;;;23.70;99.90;;;;;;8399669;28;19969;-70
2023/06/19 12:47:00;;;;;;;;;;;23.80;99.90;;;;;;8396934;28;19962;-70
2023/06/19 12:51:02;;;;;;;;;;;23.90;99.90;;;;;;8396226;28;19932;-71
2023/06/19 12:55:04;;;;;;;;;;;23.90;99.90;;;;;;8403660;28;20378;-70
2023/06/19 12:59:05;;;;;;;;;;;23.90;99.90;;;;;;8404929;28;20588;-70
2023/06/19 13:03:07;;;;;;;;;;;24.00;99.90;;;;;;8392038;28;20330;-70
2023/06/19 13:07:08;;;;;;;;;;;24.00;99.90;;;;;;8427170;28;19970;-71
2023/06/19 13:11:10;;;;;;;;;;;24.10;99.90;;;;;;8421837;28;19931;-70
2023/06/19 13:15:12;;;;;;;;;;;24.10;99.90;;;;;;8409669;28;19927;-70
2023/06/19 13:19:14;;;;;;;;;;;24.20;99.90;;;;;;8411716;28;19924;-70
2023/06/19 13:23:16;;;;;;;;;;;24.30;99.90;;;;;;8395324;28;19978;-70
2023/06/19 13:27:17;;;;;;;;;;;24.40;99.90;;;;;;8418920;28;19982;-70
2023/06/19 13:31:19;;;;;;;;;;;24.40;99.90;;;;;;8396472;28;19924;-70
2023/06/19 13:35:21;;;;;;;;;;;24.40;99.90;;;;;;8426284;28;19931;-70
2023/06/19 13:39:23;;;;;;;;;;;24.40;99.90;;;;;;8443233;27;19928;-71
2023/06/19 13:43:25;;;;;;;;;;;24.50;99.90;;;;;;8430775;28;19923;-71
2023/06/19 13:47:27;;;;;;;;;;;24.50;99.90;;;;;;8415629;28;19947;-72
2023/06/19 13:51:29;;;;;;;;;;;24.50;99.90;;;;;;8421583;28;20001;-72
2023/06/19 13:55:30;;;;;;;;;;;24.60;99.90;;;;;;8405126;28;19924;-71
2023/06/19 13:59:32;;;;;;;;;;;24.70;99.90;;;;;;8411582;28;20304;-70
2023/06/19 14:03:35;;;;;;;;;;;24.70;99.90;;;;;;8453366;27;19928;-70
2023/06/19 14:07:37;;;;;;;;;;;24.80;99.90;;;;;;8411709;28;20413;-71
2023/06/19 14:11:38;;;;;;;;;;;24.80;99.90;;;;;;8430866;28;19924;-71
2023/06/19 14:15:40;;;;;;;;;;;24.90;99.90;;;;;;8436514;28;20615;-70
2023/06/19 14:19:42;;;;;;;;;;;24.90;99.90;;;;;;8437665;28;19924;-71
2023/06/19 14:23:44;;;;;;;;;;;25.00;99.90;;;;;;8434810;28;19928;-70
2023/06/19 14:27:45;;;;;;;;;;;25.10;99.90;;;;;;8424095;28;19924;-71
2023/06/19 14:31:47;;;;;;;;;;;25.10;99.90;;;;;;8441668;28;19923;-71
2023/06/19 14:35:49;;;;;;;;;;;25.20;99.90;;;;;;8414263;28;19970;-70
2023/06/19 14:39:54;;;;;;;;;;;25.20;99.90;;;;;;8432752;28;20321;-70
2023/06/19 14:43:58;;;;;;;;;;;25.30;99.90;;;;;;8430571;28;20127;-71
2023/06/19 14:48:00;;;;;;;;;;;25.30;99.90;;;;;;8423798;28;19931;-70
2023/06/19 14:52:01;;;;;;;;;;;25.40;99.90;;;;;;8430412;27;20380;-70
2023/06/19 14:56:03;;;;;;;;;;;25.50;99.90;;;;;;8438110;28;19923;-70
2023/06/19 15:00:05;;;;;;;;;;;25.60;99.90;;;;;;8429388;28;20434;-71
2023/06/19 15:04:07;;;;;;;;;;;25.60;99.90;;;;;;8431900;28;20391;-70
2023/06/19 15:08:10;;;;;;;;;;;25.60;99.90;;;;;;8408636;28;19928;-70
2023/06/19 15:12:12;;;;;;;;;;;25.60;99.90;;;;;;8433872;28;19927;-70
2023/06/19 15:16:14;;;;;;;;;;;25.70;99.90;;;;;;8422342;28;19927;-71
2023/06/19 15:20:16;;;;;;;;;;;25.80;99.90;;;;;;8451239;27;19984;-70
2023/06/19 15:24:18;;;;;;;;;;;25.80;99.50;;;;;;8436993;28;20367;-70
2023/06/19 15:28:19;;;;;;;;;;;25.80;99.90;;;;;;8438183;28;20377;-70
2023/06/19 15:32:21;;;;;;;;;;;25.80;99.90;;;;;;8427980;28;19924;-70
2023/06/19 15:36:23;;;;;;;;;;;25.90;99.90;;;;;;8416227;28;19972;-70
2023/06/19 15:40:26;;;;;;;;;;;26.00;98.50;;;;;;8424651;28;20019;-71
2023/06/19 15:44:28;;;;;;;;;;;26.00;98.90;;;;;;8404892;28;19932;-71
2023/06/19 15:48:30;;;;;;;;;;;26.10;97.20;;;;;;8436938;28;19924;-70
2023/06/19 15:52:32;;;;;;;;;;;26.20;95.50;;;;;;8405863;28;19925;-69
2023/06/19 15:56:34;;;;;;;;;;;26.30;97.20;;;;;;8432735;28;19928;-69
2023/06/19 16:00:35;;;;;;;;;;;26.30;99.90;;;;;;8408313;28;19924;-69
2023/06/19 16:04:38;;;;;;;;;;;26.60;98.30;;;;;;8407415;28;19925;-70
2023/06/19 16:08:40;;;;;;;;;;;26.80;99.90;;;;;;8414734;28;19959;-69
2023/06/19 16:12:42;;;;;;;;;;;27.10;95.40;;;;;;8404911;28;19986;-71
2023/06/19 16:16:43;;;;;;;;;;;27.10;98.10;;;;;;8412193;28;19933;-70
2023/06/19 16:20:45;;;;;;;;;;;27.10;97.10;;;;;;8416470;28;20018;-70
2023/06/19 16:24:47;;;;;;;;;;;27.30;99.90;;;;;;8412357;28;20402;-70
2023/06/19 16:28:50;;;;;;;;;;;27.50;99.90;;;;;;8394276;28;19932;-70
2023/06/19 16:32:52;;;;;;;;;;;27.80;98.50;;;;;;8411366;28;19935;-70
2023/06/19 16:36:53;;;;;;;;;;;28.20;99.90;;;;;;8402815;28;21583;-70
2023/06/19 16:40:55;;;;;;;;;;;28.40;99.30;;;;;;8423003;28;19950;-70
2023/06/19 16:44:57;;;;;;;;;;;28.60;99.90;;;;;;8402667;28;19932;-70
2023/06/19 16:48:59;;;;;;;;;;;28.70;99.90;;;;;;8410386;28;19932;-69
2023/06/19 16:53:02;;;;;;;;;;;28.80;99.90;;;;;;8419564;27;20299;-70
2023/06/19 16:57:04;;;;;;;;;;;28.70;95.80;;;;;;8406658;28;19928;-71
2023/06/19 17:01:06;;;;;;;;;;;28.70;99.90;;;;;;8408022;28;20387;-70
2023/06/19 17:05:08;;;;;;;;;;;28.60;99.90;;;;;;8409950;28;20014;-70
2023/06/19 17:09:09;;;;;;;;;;;28.40;99.90;;;;;;8414468;28;19939;-70
2023/06/19 17:13:11;;;;;;;;;;;28.30;99.90;;;;;;8398936;28;19964;-70
2023/06/19 17:17:12;;;;;;;;;;;28.10;99.90;;;;;;8404797;28;19924;-71
2023/06/19 17:21:14;;;;;;;;;;;27.90;99.00;;;;;;8401055;28;19943;-70
2023/06/19 17:25:16;;;;;;;;;;;27.70;99.90;;;;;;8394084;28;19928;-70
2023/06/19 17:29:17;;;;;;;;;;;27.60;99.70;;;;;;8415680;28;19925;-70
2023/06/19 17:33:19;;;;;;;;;;;27.40;99.90;;;;;;8408573;28;19951;-70
2023/06/19 17:37:21;;;;;;;;;;;27.40;99.90;;;;;;8425914;28;19935;-70
2023/06/19 17:41:22;;;;;;;;;;;27.30;99.90;;;;;;8421757;28;19955;-70
2023/06/19 17:45:24;;;;;;;;;;;27.20;99.40;;;;;;8420784;28;19940;-70
2023/06/19 17:49:26;;;;;;;;;;;27.20;99.90;;;;;;8423285;28;19932;-71
2023/06/19 17:53:27;;;;;;;;;;;27.10;99.90;;;;;;8404927;28;19925;-71
2023/06/19 17:57:29;;;;;;;;;;;27.00;99.90;;;;;;8418064;28;20321;-70
2023/06/19 18:01:31;;;;;;;;;;;27.00;99.90;;;;;;8394809;28;19924;-71
2023/06/19 18:05:32;;;;;;;;;;;26.90;99.90;;;;;;8405822;28;19939;-71
2023/06/19 18:09:34;;;;;;;;;;;26.80;99.90;;;;;;8399123;28;19935;-70
2023/06/19 18:13:36;;;;;;;;;;;26.70;99.90;;;;;;8409672;28;19985;-70
2023/06/19 18:17:37;;;;;;;;;;;26.70;99.90;;;;;;8420299;28;19947;-71
2023/06/19 18:21:39;;;;;;;;;;;26.60;99.90;;;;;;8418953;28;19931;-70
2023/06/19 18:25:41;;;;;;;;;;;26.60;99.90;;;;;;8411524;28;20298;-70
2023/06/19 18:29:42;;;;;;;;;;;26.50;99.90;;;;;;8426635;28;19928;-71
2023/06/19 18:33:44;;;;;;;;;;;26.50;99.90;;;;;;8423840;28;19932;-71
2023/06/19 18:37:46;;;;;;;;;;;26.50;99.90;;;;;;8429662;28;21796;-71
2023/06/19 18:41:48;;;;;;;;;;;26.40;99.90;;;;;;8416779;28;19932;-71
2023/06/19 18:45:50;;;;;;;;;;;26.40;99.90;;;;;;8418701;28;19977;-71
2023/06/19 18:49:52;;;;;;;;;;;26.30;99.90;;;;;;8417384;28;19935;-71
2023/06/19 18:53:53;;;;;;;;;;;26.30;99.90;;;;;;8421231;28;19924;-71
2023/06/19 18:57:55;;;;;;;;;;;26.20;99.90;;;;;;8421516;27;19924;-70
2023/06/19 19:01:57;;;;;;;;;;;26.10;99.90;;;;;;8416842;28;19936;-71
2023/06/19 19:05:59;;;;;;;;;;;26.00;99.90;;;;;;8422455;27;19923;-71
2023/06/19 19:10:00;;;;;;;;;;;25.90;99.90;;;;;;8416415;28;19953;-71
2023/06/19 19:14:02;;;;;;;;;;;25.80;99.80;;;;;;8410921;27;19933;-71
2023/06/19 19:18:04;;;;;;;;;;;25.70;99.90;;;;;;8422378;28;20339;-71
2023/06/19 19:22:06;;;;;;;;;;;25.60;99.90;;;;;;8407964;28;19928;-71
2023/06/19 19:26:07;;;;;;;;;;;25.60;99.90;;;;;;8390401;28;19924;-71
2023/06/19 19:30:09;;;;;;;;;;;25.40;99.80;;;;;;8417561;27;20292;-71
2023/06/19 19:34:16;;;;;;;;;;;25.40;99.80;;;;;;8413278;28;19928;-71
2023/06/19 19:38:20;;;;;;;;;;;25.30;99.80;;;;;;8408186;28;20264;-71
2023/06/19 19:42:22;;;;;;;;;;;25.20;99.80;;;;;;8410705;28;19970;-71
2023/06/19 19:46:24;;;;;;;;;;;25.10;99.80;;;;;;8407273;28;20045;-71
2023/06/19 19:50:25;;;;;;;;;;;25.00;99.80;;;;;;8399224;28;19932;-71
2023/06/19 19:54:28;;;;;;;;;;;24.90;99.70;;;;;;8406286;28;19924;-71
2023/06/19 19:58:29;;;;;;;;;;;24.80;99.70;;;;;;8421597;27;19927;-71
2023/06/19 20:02:31;;;;;;;;;;;24.80;99.70;;;;;;8406246;28;19924;-71
2023/06/19 20:06:34;;;;;;;;;;;24.70;99.70;;;;;;8413246;28;19931;-71
2023/06/19 20:10:35;;;;;;;;;;;24.60;99.70;;;;;;8401491;28;19931;-71
2023/06/19 20:14:39;;;;;;;;;;;24.60;99.60;;;;;;8407770;28;19924;-71
2023/06/19 20:18:40;;;;;;;;;;;24.50;99.60;;;;;;8418596;27;19936;-71
2023/06/19 20:22:42;;;;;;;;;;;24.50;99.50;;;;;;8384450;28;20304;-71
2023/06/19 20:26:43;;;;;;;;;;;24.40;99.50;;;;;;8427308;27;19931;-72
2023/06/19 20:30:45;;;;;;;;;;;24.30;99.40;;;;;;8410829;28;19928;-72
2023/06/19 20:34:47;;;;;;;;;;;24.30;99.40;;;;;;8401498;28;19924;-71
2023/06/19 20:38:48;;;;;;;;;;;24.20;99.30;;;;;;8413383;28;19924;-71
2023/06/19 20:42:51;;;;;;;;;;;24.10;99.20;;;;;;8422712;28;20264;-71
2023/06/19 20:46:52;;;;;;;;;;;24.10;99.30;;;;;;8407819;28;19947;-72
2023/06/19 20:50:54;;;;;;;;;;;24.00;99.20;;;;;;8396954;28;20024;-71
2023/06/19 20:54:56;;;;;;;;;;;23.90;99.10;;;;;;8423980;28;19925;-71
2023/06/19 20:58:58;;;;;;;;;;;23.90;99.20;;;;;;8418297;28;19924;-71
2023/06/19 21:03:02;;;;;;;;;;;23.90;99.10;;;;;;8423337;28;19934;-71
2023/06/19 21:07:04;;;;;;;;;;;23.80;99.10;;;;;;8405821;28;20279;-71
2023/06/19 21:11:06;;;;;;;;;;;23.80;99.10;;;;;;8400769;28;20382;-71
2023/06/19 21:15:08;;;;;;;;;;;23.80;99.10;;;;;;8408445;28;20393;-71
2023/06/19 21:19:10;;;;;;;;;;;23.70;99.10;;;;;;8400067;28;20298;-71
2023/06/19 21:23:11;;;;;;;;;;;23.70;99.10;;;;;;8406133;28;19928;-71
2023/06/19 21:27:13;;;;;;;;;;;23.70;99.10;;;;;;8413151;28;19931;-71
2023/06/19 21:31:15;;;;;;;;;;;23.60;99.10;;;;;;8405387;28;19925;-72
2023/06/19 21:35:17;;;;;;;;;;;23.60;99.10;;;;;;8440145;28;19924;-71
2023/06/19 21:39:18;;;;;;;;;;;23.60;99.10;;;;;;8393044;28;19932;-71
2023/06/19 21:43:20;;;;;;;;;;;23.50;99.10;;;;;;8414622;28;20450;-71
2023/06/19 21:47:22;;;;;;;;;;;23.50;99.10;;;;;;8432480;28;20303;-71
2023/06/19 21:51:23;;;;;;;;;;;23.50;99.20;;;;;;8415551;28;19931;-71
2023/06/19 21:55:25;;;;;;;;;;;23.40;99.20;;;;;;8425247;28;19924;-71
2023/06/19 21:59:27;;;;;;;;;;;23.40;99.10;;;;;;8399846;28;19936;-71
2023/06/19 22:03:28;;;;;;;;;;;23.40;99.20;;;;;;8423678;28;19925;-71
2023/06/19 22:07:30;;;;;;;;;;;23.30;99.10;;;;;;8422592;28;19934;-71
2023/06/19 22:11:32;;;;;;;;;;;23.20;99.10;;;;;;8422358;28;19947;-71
2023/06/19 22:15:33;;;;;;;;;;;23.20;99.20;;;;;;8429272;28;19932;-71
2023/06/19 22:19:38;;;;;;;;;;;23.20;99.20;;;;;;8415120;28;19981;-71
2023/06/19 22:23:41;;;;;;;;;;;23.20;99.20;;;;;;8413037;28;20018;-71
2023/06/19 22:27:44;;;;;;;;;;;23.20;99.20;;;;;;8425035;28;19924;-71
2023/06/19 22:31:46;;;;;;;;;;;23.10;99.20;;;;;;8417509;28;19932;-71
2023/06/19 22:35:48;;;;;;;;;;;23.10;99.20;;;;;;8410102;28;19994;-71
2023/06/19 22:39:50;;;;;;;;;;;23.10;99.20;;;;;;8423280;28;20344;-71
2023/06/19 22:43:52;;;;;;;;;;;23.10;99.20;;;;;;8423320;28;19930;-72
2023/06/19 22:47:53;;;;;;;;;;;23.00;99.10;;;;;;8392250;28;19924;-72
2023/06/19 22:51:56;;;;;;;;;;;23.00;99.10;;;;;;8423378;28;19928;-71
2023/06/19 22:55:58;;;;;;;;;;;23.00;99.10;;;;;;8417244;28;19969;-71
2023/06/19 23:00:00;;;;;;;;;;;23.00;99.20;;;;;;8397516;28;19924;-71
2023/06/19 23:04:04;;;;;;;;;;;22.90;99.10;;;;;;8417867;28;19923;-71
2023/06/19 23:08:06;;;;;;;;;;;22.90;99.20;;;;;;8398072;28;20054;-71
2023/06/19 23:12:08;;;;;;;;;;;22.90;99.20;;;;;;8414908;28;20293;-71
2023/06/19 23:16:10;;;;;;;;;;;22.90;99.20;;;;;;8427502;28;19932;-71
2023/06/19 23:20:12;;;;;;;;;;;22.80;99.10;;;;;;8414373;28;19932;-71
2023/06/19 23:24:14;;;;;;;;;;;22.80;99.10;;;;;;8421577;28;20375;-72
2023/06/19 23:28:18;;;;;;;;;;;22.80;99.10;;;;;;8428411;27;20388;-71
2023/06/19 23:32:21;;;;;;;;;;;22.80;99.10;;;;;;8420466;28;19950;-71